.
WxDataArchive / Data Records for 2008-09-26
2008-09-25 September 2008 2008-09-27

Data Records for Friday, 26 September 2008

Time	Temp	Chill	HIndex	Humid	Dewpt	 Wind 	HiWind	WindDir	Rain 	Barom 
-----	----	-----	------	-----	-----	------	------	-------	-----	----- 
00:00	59.9	59.9	59.9	79	53.4	0	2	112	0.00	30.177 
00:05	59.8	59.8	59.8	79	53.3	0	2	---	0.00	30.176 
00:10	59.5	59.5	59.5	79	53.0	0	0	---	0.00	30.176 
00:15	59.2	59.2	59.2	80	53.0	0	0	---	0.00	30.176 
00:20	59.0	59.0	59.0	81	53.2	0	0	---	0.00	30.176 
00:25	58.7	58.7	58.7	82	53.2	0	0	---	0.00	30.175 
00:30	58.6	58.6	58.6	83	53.4	0	0	---	0.00	30.172 
00:35	58.3	58.3	58.3	84	53.5	0	0	---	0.00	30.175 
00:40	58.3	58.3	58.3	84	53.5	0	0	---	0.00	30.177 
00:45	58.1	58.1	58.1	85	53.6	0	0	---	0.00	30.174 
00:50	58.3	58.3	58.3	85	53.8	0	0	---	0.00	30.170 
00:55	58.4	58.4	58.4	86	54.2	0	1	112	0.00	30.168 
01:00	58.6	58.6	58.6	86	54.4	0	1	112	0.00	30.167 
01:05	58.6	58.6	58.6	86	54.4	0	1	112	0.00	30.167 
01:10	58.6	58.6	58.6	86	54.4	0	1	112	0.00	30.169 
01:15	58.4	58.4	58.4	86	54.2	0	0	---	0.00	30.170 
01:20	58.3	58.3	58.3	86	54.1	0	0	---	0.00	30.170 
01:25	58.3	58.3	58.3	87	54.4	0	0	---	0.00	30.169 
01:30	58.1	58.1	58.1	87	54.2	0	2	112	0.00	30.168 
01:35	58.1	58.1	58.1	88	54.6	0	1	112	0.00	30.171 
01:40	58.1	58.1	58.1	88	54.6	0	0	---	0.00	30.171 
01:45	58.0	58.0	58.0	88	54.5	0	1	112	0.00	30.170 
01:50	57.8	57.8	57.8	88	54.3	0	0	---	0.00	30.171 
01:55	57.6	57.6	57.6	88	54.1	0	0	---	0.00	30.171 
02:00	57.3	57.3	57.3	88	53.8	0	0	---	0.00	30.171 
02:05	57.2	57.2	57.2	89	54.0	0	0	---	0.00	30.173 
02:10	56.9	56.9	56.9	89	53.7	0	0	---	0.00	30.172 
02:15	56.7	56.7	56.7	90	53.8	0	0	---	0.00	30.170 
02:20	56.6	56.6	56.6	90	53.7	0	0	---	0.00	30.166 
02:25	56.5	56.5	56.5	90	53.6	0	0	---	0.00	30.166 
02:30	56.3	56.3	56.3	91	53.7	0	0	---	0.00	30.164 
02:35	56.2	56.2	56.2	91	53.6	0	0	---	0.00	30.164 
02:40	56.0	56.0	56.0	91	53.4	0	0	---	0.00	30.164 
02:45	56.0	56.0	56.0	92	53.7	0	0	---	0.00	30.163 
02:50	55.9	55.9	55.9	92	53.6	0	0	---	0.00	30.163 
02:55	55.7	55.7	55.7	92	53.4	0	0	---	0.00	30.161 
03:00	55.7	55.7	55.7	92	53.4	0	0	---	0.00	30.160 
03:05	55.7	55.7	55.7	92	53.4	0	1	112	0.00	30.158 
03:10	55.7	55.7	55.7	92	53.4	0	0	---	0.00	30.153 
03:15	55.6	55.6	55.6	92	53.3	0	0	---	0.00	30.153 
03:20	55.6	55.6	55.6	92	53.3	0	0	---	0.00	30.154 
03:25	55.4	55.4	55.4	93	53.4	0	1	112	0.00	30.155 
03:30	55.3	55.3	55.3	93	53.3	0	0	---	0.00	30.156 
03:35	55.3	55.3	55.3	93	53.3	0	0	---	0.00	30.158 
03:40	55.1	55.1	55.1	93	53.1	0	0	---	0.00	30.156 
03:45	55.0	55.0	55.0	93	53.0	0	0	---	0.00	30.157 
03:50	54.8	54.8	54.8	93	52.8	0	0	---	0.00	30.158 
03:55	54.7	54.7	54.7	93	52.7	0	0	---	0.00	30.155 
04:00	54.7	54.7	54.7	93	52.7	0	0	---	0.00	30.154 
04:05	54.5	54.5	54.5	93	52.5	0	0	---	0.00	30.152 
04:10	54.4	54.4	54.4	94	52.7	0	0	---	0.00	30.150 
04:15	54.2	54.2	54.2	94	52.5	0	0	---	0.00	30.151 
04:20	54.1	54.1	54.1	94	52.4	0	0	---	0.00	30.152 
04:25	53.9	53.9	53.9	94	52.2	0	0	---	0.00	30.152 
04:30	54.1	54.1	54.1	94	52.4	0	0	---	0.00	30.152 
04:35	54.1	54.1	54.1	94	52.4	0	0	---	0.00	30.152 
04:40	54.1	54.1	54.1	94	52.4	0	0	---	0.00	30.151 
04:45	54.1	54.1	54.1	95	52.7	0	0	---	0.00	30.151 
04:50	54.2	54.2	54.2	95	52.8	0	0	---	0.00	30.151 
04:55	54.2	54.2	54.2	95	52.8	0	0	---	0.00	30.151 
05:00	54.1	54.1	54.1	95	52.7	0	0	---	0.00	30.152 
05:05	54.1	54.1	54.1	95	52.7	0	0	---	0.00	30.153 
05:10	53.9	53.9	53.9	95	52.5	0	0	---	0.00	30.154 
05:15	53.9	53.9	53.9	95	52.5	0	0	---	0.00	30.152 
05:20	53.8	53.8	53.8	95	52.4	0	0	---	0.00	30.153 
05:25	53.8	53.8	53.8	95	52.4	0	0	---	0.00	30.153 
05:30	53.9	53.9	53.9	95	52.5	0	0	---	0.00	30.153 
05:35	53.9	53.9	53.9	95	52.5	0	0	---	0.00	30.154 
05:40	53.9	53.9	53.9	95	52.5	0	0	---	0.00	30.153 
05:45	54.1	54.1	54.1	96	53.0	0	1	112	0.00	30.153 
05:50	54.4	54.4	54.4	96	53.3	0	2	112	0.00	30.155 
05:55	54.5	54.5	54.5	96	53.4	0	0	---	0.00	30.155 
06:00	54.5	54.5	54.5	96	53.4	0	1	112	0.00	30.157 
06:05	54.5	54.5	54.5	95	53.1	0	0	---	0.00	30.163 
06:10	54.4	54.4	54.4	95	53.0	0	0	---	0.00	30.164 
06:15	54.2	54.2	54.2	95	52.8	0	0	---	0.00	30.164 
06:20	53.9	53.9	53.9	95	52.5	0	0	---	0.00	30.164 
06:25	53.8	53.8	53.8	95	52.4	0	1	112	0.00	30.164 
06:30	53.6	53.6	53.6	95	52.2	0	0	---	0.00	30.164 
06:35	53.6	53.6	53.6	95	52.2	0	0	---	0.00	30.163 
06:40	53.3	53.3	53.3	95	51.9	0	0	---	0.00	30.166 
06:45	53.2	53.2	53.2	95	51.8	0	0	---	0.00	30.170 
06:50	53.2	53.2	53.2	95	51.8	0	0	---	0.00	30.171 
06:55	53.2	53.2	53.2	95	51.8	0	0	---	0.00	30.173 
07:00	53.2	53.2	53.2	95	51.8	0	0	---	0.00	30.174 
07:05	53.2	53.2	53.2	95	51.8	0	0	---	0.00	30.176 
07:10	53.5	53.5	53.5	96	52.4	0	0	---	0.00	30.176 
07:15	53.6	53.6	53.6	95	52.2	0	0	---	0.00	30.175 
07:20	53.9	53.9	53.9	96	52.8	0	1	112	0.00	30.174 
07:25	54.4	54.4	54.4	96	53.3	0	1	112	0.00	30.174 
07:30	54.7	54.7	54.7	96	53.6	0	0	---	0.00	30.174 
07:35	55.0	55.0	55.0	95	53.6	0	0	---	0.00	30.173 
07:40	55.3	55.3	55.3	95	53.9	0	0	---	0.00	30.174 
07:45	55.7	55.7	55.7	95	54.3	0	0	---	0.00	30.172 
07:50	56.0	56.0	56.0	95	54.6	0	1	112	0.00	30.173 
07:55	56.5	56.5	56.5	94	54.8	0	1	112	0.00	30.173 
08:00	56.9	56.9	56.9	93	54.9	0	1	112	0.00	30.173 
08:05	57.3	57.3	57.3	90	54.4	0	2	112	0.00	30.175 
08:10	58.0	58.0	58.0	85	53.5	0	3	112	0.00	30.173 
08:15	58.7	58.7	58.7	82	53.2	0	3	112	0.00	30.173 
08:20	59.3	59.3	59.3	77	52.1	1	3	68	0.00	30.173 
08:25	60.1	60.1	60.1	73	51.4	1	3	112	0.00	30.171 
08:30	60.9	60.9	60.9	72	51.8	1	4	112	0.00	30.171 
08:35	61.3	61.3	61.3	70	51.4	1	7	112	0.00	30.171 
08:40	61.8	61.8	61.8	70	51.9	1	7	90	0.00	30.170 
08:45	62.4	62.4	62.4	70	52.5	1	3	112	0.00	30.169 
08:50	62.7	62.7	62.7	67	51.6	1	3	90	0.00	30.169 
08:55	63.2	63.2	63.2	68	52.5	1	4	112	0.00	30.170 
09:00	63.5	63.5	63.5	67	52.3	1	4	112	0.00	30.170 
09:05	64.0	64.0	64.0	68	53.2	1	5	112	0.00	30.174 
09:10	64.7	64.7	64.7	64	52.2	1	4	90	0.00	30.177 
09:15	65.8	65.8	65.8	61	52.0	1	3	90	0.00	30.175 
09:20	66.8	66.8	66.8	61	52.9	1	4	90	0.00	30.173 
09:25	67.4	67.4	67.4	58	52.1	1	3	112	0.00	30.173 
09:30	68.3	68.3	68.3	58	52.9	2	4	112	0.00	30.169 
09:35	68.8	68.8	68.8	55	52.0	1	2	112	0.00	30.169 
09:40	69.3	69.3	69.3	57	53.4	1	5	90	0.00	30.171 
09:45	69.6	69.6	69.6	55	52.7	1	4	68	0.00	30.168 
09:50	69.9	69.9	69.9	56	53.5	2	6	90	0.00	30.166 
09:55	70.3	70.3	70.3	54	52.9	1	4	135	0.00	30.166 
10:00	70.6	70.6	70.6	54	53.1	2	6	90	0.00	30.166 
10:05	70.9	70.9	70.9	55	53.9	1	3	90	0.00	30.166 
10:10	71.1	71.1	71.1	50	51.5	3	9	112	0.00	30.166 
10:15	71.3	71.3	71.3	53	53.3	2	7	112	0.00	30.162 
10:20	71.5	71.5	71.5	51	52.4	3	7	90	0.00	30.158 
10:25	71.8	71.8	71.8	51	52.7	3	5	112	0.00	30.157 
10:30	72.0	72.0	72.0	47	50.7	3	9	112	0.00	30.156 
10:35	72.0	72.0	72.0	48	51.2	4	13	90	0.00	30.156 
10:40	72.3	72.3	72.3	43	48.5	2	7	90	0.00	30.154 
10:45	72.3	72.3	72.3	46	50.3	4	14	90	0.00	30.151 
10:50	72.3	72.3	72.3	46	50.3	3	11	112	0.00	30.152 
10:55	72.5	72.5	72.5	44	49.3	3	7	68	0.00	30.150 
11:00	72.7	72.7	72.7	50	53.0	3	11	90	0.00	30.149 
11:05	73.0	73.0	73.0	46	51.0	3	7	112	0.00	30.149 
11:10	73.2	73.2	73.2	45	50.6	3	9	90	0.00	30.145 
11:15	73.3	73.3	73.3	46	51.3	2	10	90	0.00	30.138 
11:20	73.5	73.5	73.5	45	50.8	3	11	90	0.00	30.136 
11:25	73.7	73.7	73.7	43	49.8	2	7	90	0.00	30.134 
11:30	73.9	73.9	73.9	43	50.0	3	7	112	0.00	30.132 
11:35	74.0	74.0	74.0	38	46.8	3	7	112	0.00	30.132 
11:40	74.2	74.2	74.2	40	48.3	2	6	90	0.00	30.129 
11:45	74.2	74.2	74.2	37	46.2	3	9	90	0.00	30.127 
11:50	74.2	74.2	74.2	35	44.8	4	10	90	0.00	30.127 
11:55	74.4	74.4	74.4	38	47.1	2	6	112	0.00	30.124 
12:00	74.9	74.9	74.9	35	45.4	2	7	112	0.00	30.122 
12:05	75.3	75.3	77.2	32	43.4	2	6	90	0.00	30.119 
12:10	75.3	75.3	77.1	31	42.6	4	9	112	0.00	30.117 
12:15	75.3	75.3	77.1	31	42.6	2	6	90	0.00	30.115 
12:20	75.3	75.3	77.2	32	43.4	3	11	90	0.00	30.112 
12:25	75.4	75.4	77.3	34	45.1	2	8	112	0.00	30.110 
12:30	75.6	75.6	77.4	34	45.2	3	7	112	0.00	30.107 
12:35	75.8	75.8	77.5	34	45.4	2	5	112	0.00	30.102 
12:40	76.0	76.0	77.2	29	41.4	3	9	90	0.00	30.102 
12:45	76.0	76.0	77.5	34	45.6	3	8	90	0.00	30.100 
12:50	76.1	76.1	77.4	32	44.1	2	7	112	0.00	30.097 
12:55	76.1	76.1	77.2	28	40.6	3	6	90	0.00	30.092 
13:00	76.1	76.1	77.1	27	39.7	4	10	90	0.00	30.088 
13:05	76.3	76.3	77.2	27	39.8	3	11	112	0.00	30.090 
13:10	76.3	76.3	77.2	28	40.8	3	7	112	0.00	30.089 
13:15	76.7	76.7	77.4	28	41.1	1	4	112	0.00	30.086 
13:20	76.7	76.7	77.3	27	40.2	2	5	90	0.00	30.083 
13:25	76.7	76.7	77.3	27	40.2	2	5	112	0.00	30.082 
13:30	76.8	76.8	77.5	28	41.2	2	8	90	0.00	30.076 
13:35	76.8	76.8	77.7	32	44.7	2	6	135	0.00	30.073 
13:40	76.8	76.8	77.7	31	43.9	2	7	90	0.00	30.072 
13:45	77.0	77.0	77.9	34	46.5	2	6	90	0.00	30.070 
13:50	77.2	77.2	78.0	34	46.6	1	4	180	0.00	30.066 
13:55	77.4	77.4	78.0	33	46.0	1	6	90	0.00	30.064 
14:00	77.4	77.4	78.2	36	48.3	2	7	135	0.00	30.061 
14:05	77.6	77.6	78.1	32	45.4	1	3	112	0.00	30.057 
14:10	77.4	77.4	77.8	30	43.5	3	6	112	0.00	30.057 
14:15	77.4	77.4	77.7	28	41.7	2	10	68	0.00	30.058 
14:20	77.4	77.4	77.8	29	42.6	2	6	90	0.00	30.057 
14:25	77.4	77.4	77.8	30	43.5	1	8	135	0.00	30.056 
14:30	77.6	77.6	78.2	34	47.0	1	6	135	0.00	30.051 
14:35	77.6	77.6	77.8	28	41.9	3	6	90	0.00	30.050 
14:40	77.6	77.6	77.9	29	42.8	1	3	90	0.00	30.045 
14:45	77.7	77.7	77.8	28	42.0	3	9	90	0.00	30.044 
14:50	77.7	77.7	78.0	30	43.8	1	6	112	0.00	30.041 
14:55	77.7	77.7	78.0	31	44.6	1	5	112	0.00	30.039 
15:00	77.7	77.7	77.8	27	41.0	4	8	112	0.00	30.039 
15:05	77.7	77.7	78.0	30	43.8	3	7	112	0.00	30.040 
15:10	77.7	77.7	77.8	28	42.0	3	9	112	0.00	30.039 
15:15	77.7	77.7	78.0	30	43.8	2	7	90	0.00	30.037 
15:20	77.7	77.7	77.8	28	42.0	3	7	112	0.00	30.037 
15:25	77.7	77.7	77.8	28	42.0	2	5	90	0.00	30.036 
15:30	77.9	77.9	77.9	28	42.1	3	9	90	0.00	30.035 
15:35	77.9	77.9	77.9	27	41.2	2	6	112	0.00	30.034 
15:40	77.9	77.9	78.1	30	43.9	1	6	90	0.00	30.031 
15:45	77.7	77.7	78.0	30	43.8	4	9	90	0.00	30.029 
15:50	77.6	77.6	78.1	33	46.2	2	8	112	0.00	30.027 
15:55	77.4	77.4	78.0	32	45.2	1	5	90	0.00	30.027 
16:00	77.2	77.2	77.9	32	45.0	1	7	112	0.00	30.026 
16:05	76.8	76.8	77.7	32	44.7	2	7	112	0.00	30.027 
16:10	76.5	76.5	77.7	33	45.2	1	6	135	0.00	30.027 
16:15	76.1	76.1	77.6	35	46.4	3	9	90	0.00	30.028 
16:20	76.1	76.1	77.6	35	46.4	2	7	112	0.00	30.027 
16:25	76.0	76.0	77.6	36	47.1	1	5	90	0.00	30.027 
16:30	76.0	76.0	77.7	37	47.8	2	5	112	0.00	30.025 
16:35	76.0	76.0	77.7	38	48.5	1	3	112	0.00	30.023 
16:40	75.8	75.8	77.7	39	49.1	2	6	112	0.00	30.025 
16:45	75.8	75.8	77.7	39	49.1	2	6	112	0.00	30.025 
16:50	75.8	75.8	77.7	39	49.1	2	10	90	0.00	30.025 
16:55	75.8	75.8	77.8	42	51.1	1	4	112	0.00	30.026 
17:00	75.6	75.6	77.7	41	50.2	1	5	112	0.00	30.025 
17:05	75.4	75.4	77.7	43	51.3	1	4	90	0.00	30.025 
17:10	75.4	75.4	77.7	42	50.7	2	6	90	0.00	30.026 
17:15	75.3	75.3	77.6	41	50.0	3	7	90	0.00	30.027 
17:20	75.1	75.1	77.6	42	50.4	4	10	90	0.00	30.027 
17:25	74.9	74.9	74.9	43	50.9	3	11	90	0.00	30.027 
17:30	74.7	74.7	74.7	43	50.7	3	7	90	0.00	30.028 
17:35	74.4	74.4	74.4	44	51.0	3	10	112	0.00	30.030 
17:40	74.2	74.2	74.2	44	50.9	3	7	112	0.00	30.032 
17:45	73.9	73.9	73.9	45	51.2	3	8	112	0.00	30.031 
17:50	73.5	73.5	73.5	46	51.4	4	7	112	0.00	30.030 
17:55	73.2	73.2	73.2	46	51.2	4	11	112	0.00	30.029 
18:00	73.0	73.0	73.0	46	51.0	3	9	90	0.00	30.030 
18:05	72.8	72.8	72.8	47	51.4	3	9	112	0.00	30.031 
18:10	72.7	72.7	72.7	48	51.9	3	9	90	0.00	30.031 
18:15	72.3	72.3	72.3	49	52.1	2	5	90	0.00	30.033 
18:20	72.0	72.0	72.0	50	52.3	2	5	90	0.00	30.036 
18:25	71.6	71.6	71.6	50	52.0	2	5	90	0.00	30.040 
18:30	71.3	71.3	71.3	51	52.2	2	6	112	0.00	30.040 
18:35	71.1	71.1	71.1	51	52.0	3	6	90	0.00	30.039 
18:40	70.9	70.9	70.9	52	52.4	3	7	90	0.00	30.038 
18:45	70.8	70.8	70.8	53	52.8	1	5	112	0.00	30.034 
18:50	70.4	70.4	70.4	53	52.4	2	6	90	0.00	30.035 
18:55	70.1	70.1	70.1	53	52.2	2	6	112	0.00	30.035 
19:00	69.9	69.9	69.9	54	52.5	2	9	90	0.00	30.033 
19:05	69.6	69.6	69.6	54	52.2	2	4	90	0.00	30.030 
19:10	69.4	69.4	69.4	55	52.5	2	4	112	0.00	30.030 
19:15	69.1	69.1	69.1	55	52.2	1	6	112	0.00	30.029 
19:20	68.9	68.9	68.9	56	52.5	2	4	112	0.00	30.029 
19:25	68.6	68.6	68.6	57	52.7	2	4	90	0.00	30.029 
19:30	68.4	68.4	68.4	57	52.6	2	4	112	0.00	30.031 
19:35	68.1	68.1	68.1	58	52.8	2	4	112	0.00	30.030 
19:40	67.9	67.9	67.9	59	53.0	1	4	112	0.00	30.031 
19:45	67.8	67.8	67.8	59	52.9	1	6	112	0.00	30.031 
19:50	67.6	67.6	67.6	60	53.2	1	2	112	0.00	30.032 
19:55	67.3	67.3	67.3	60	52.9	1	4	135	0.00	30.032 
20:00	67.3	67.3	67.3	61	53.4	1	3	90	0.00	30.033 
20:05	67.1	67.1	67.1	61	53.2	2	6	90	0.00	30.029 
20:10	66.9	66.9	66.9	62	53.4	1	3	90	0.00	30.027 
20:15	66.8	66.8	66.8	62	53.4	1	3	112	0.00	30.027 
20:20	66.6	66.6	66.6	63	53.6	2	4	112	0.00	30.028 
20:25	66.4	66.4	66.4	64	53.8	1	3	112	0.00	30.029 
20:30	66.4	66.4	66.4	64	53.8	1	5	90	0.00	30.029 
20:35	66.3	66.3	66.3	64	53.7	0	2	90	0.00	30.028 
20:40	66.3	66.3	66.3	64	53.7	0	2	90	0.00	30.030 
20:45	66.1	66.1	66.1	64	53.6	1	2	112	0.00	30.030 
20:50	66.0	66.0	66.0	65	53.9	0	2	112	0.00	30.030 
20:55	65.8	65.8	65.8	65	53.7	0	3	112	0.00	30.030 
21:00	65.6	65.6	65.6	66	53.9	0	2	68	0.00	30.029 
21:05	65.3	65.3	65.3	67	54.1	0	2	68	0.00	30.024 
21:10	65.2	65.2	65.2	67	54.0	0	1	68	0.00	30.024 
21:15	64.8	64.8	64.8	68	54.0	0	2	68	0.00	30.023 
21:20	64.7	64.7	64.7	68	53.9	0	3	112	0.00	30.023 
21:25	64.5	64.5	64.5	68	53.7	0	3	90	0.00	30.023 
21:30	64.3	64.3	64.3	69	53.9	0	0	---	0.00	30.024 
21:35	64.0	64.0	64.0	70	54.0	0	1	90	0.00	30.023 
21:40	63.7	63.7	63.7	70	53.7	0	0	---	0.00	30.023 
21:45	63.4	63.4	63.4	71	53.8	0	1	90	0.00	30.022 
21:50	63.1	63.1	63.1	72	53.9	0	1	90	0.00	30.019 
21:55	62.9	62.9	62.9	73	54.1	0	1	90	0.00	30.018 
22:00	62.6	62.6	62.6	73	53.8	0	0	---	0.00	30.016 
22:05	62.4	62.4	62.4	74	54.0	0	1	90	0.00	30.017 
22:10	62.1	62.1	62.1	75	54.1	0	1	90	0.00	30.016 
22:15	62.1	62.1	62.1	76	54.4	0	1	90	0.00	30.014 
22:20	62.0	62.0	62.0	76	54.3	0	1	90	0.00	30.011 
22:25	62.0	62.0	62.0	77	54.7	0	1	90	0.00	30.009 
22:30	62.0	62.0	62.0	77	54.7	0	0	---	0.00	30.008 
22:35	62.0	62.0	62.0	77	54.7	0	1	90	0.00	30.008 
22:40	62.0	62.0	62.0	77	54.7	0	1	90	0.00	30.008 
22:45	61.8	61.8	61.8	78	54.9	0	1	90	0.00	30.008 
22:50	61.6	61.6	61.6	79	55.0	0	0	---	0.00	30.008 
22:55	61.5	61.5	61.5	79	54.9	0	0	---	0.00	30.007 
23:00	61.3	61.3	61.3	79	54.7	0	1	90	0.00	30.006 
23:05	61.2	61.2	61.2	80	55.0	0	0	---	0.00	30.003 
23:10	60.9	60.9	60.9	80	54.7	0	1	90	0.00	30.002 
23:15	60.7	60.7	60.7	81	54.8	0	0	---	0.00	29.999 
23:20	60.5	60.5	60.5	82	55.0	0	1	90	0.00	29.997 
23:25	60.4	60.4	60.4	82	54.9	0	1	90	0.00	29.994 
23:30	60.4	60.4	60.4	83	55.2	0	1	90	0.00	29.993 
23:35	60.4	60.4	60.4	83	55.2	0	1	90	0.00	29.993 
23:40	60.5	60.5	60.5	83	55.3	0	1	90	0.00	29.993 
23:45	60.4	60.4	60.4	83	55.2	0	1	90	0.00	29.992 
23:50	60.4	60.4	60.4	84	55.5	0	2	90	0.00	29.992 
23:55	60.2	60.2	60.2	84	55.3	0	1	90	0.00	29.992 

CoCoRaHS
IN-AL-39
A2 Web Hosting
Creative Commons License
GoDaddy
Look for:

loaded 2017-12-10 21:11:07 • last modified 2010-11-18 10:43:29
Privacy PolicyDisclaimer
• wx.awcolley.com is powered by PmWiki v.2002016 •
• all content (unless otherwise noted) © 2017 A W Colley